»·PEaware :: N396TA KBUR-KMYF

N396TA :: KBUR-KMYF

FLIGHT INFORMATION

Flight Status: Arrived
Operator: Privately registered:
United States
More flights under this callsign
Pilot: Sevag M. (33397)
Aircraft: CESSNA 172 SKYHAWK
(C172)
More flights by this aircraft type
Origin: KBUR Bob Hope-Burbank
United States
Destination: KMYF Montgomery
United States
More flights between these airports :: More routes between these airports
Route:
File this flight plan on PilotEdge
Remarks:
Altitude:
(Current/Filed)
5,500ft
Speed:
(Current/Filed)
120kts
Departed: 19-Feb-21 07:08 PM
Arrived: 19-Feb-21 08:07 PM
Distance/Time
Traveled:
103nm/0:59
Distance/Time
To Go:
Arrived

Flight Plot

Page will automatically refresh every two minutes.

Flight plan parsing failed; only flown route is shown


Map Options




Map Legend


Flown Route
Filed Route
Departure Airport
Arrival Airport
Navaid (VOR, NDB)
Fix

Horizontal Profiles

Position Reports

Time Latitude Longitude Heading Altitude Ground
Speed
19-Feb-21 18:52 34.199468 -118.359695 0 737ft 0kts
19-Feb-21 18:53 34.199468 -118.359695 0 737ft 0kts
19-Feb-21 18:54 34.199468 -118.359695 0 737ft 0kts
19-Feb-21 18:55 34.199468 -118.359695 0 737ft 0kts
19-Feb-21 18:56 34.199468 -118.359695 0 737ft 0kts
19-Feb-21 18:57 34.199468 -118.359694 0 737ft 0kts
19-Feb-21 18:58 34.199468 -118.359694 0 737ft 0kts
19-Feb-21 18:59 34.199468 -118.359694 0 737ft 0kts
19-Feb-21 19:00 34.199468 -118.359695 0 737ft 0kts
19-Feb-21 19:01 34.201489 -118.359112 356 737ft 13kts
19-Feb-21 19:02 34.207032 -118.360091 349 737ft 20kts
19-Feb-21 19:03 34.211008 -118.361213 351 737ft 19kts
19-Feb-21 19:04 34.211516 -118.361173 26 737ft 0kts
19-Feb-21 19:05 34.211516 -118.361173 26 737ft 0kts
19-Feb-21 19:06 34.211872 -118.360732 80 737ft 18kts
19-Feb-21 19:07 34.197213 -118.354652 152 1137ft 60kts
19-Feb-21 19:08 34.178133 -118.340727 149 1457ft 98kts
19-Feb-21 19:09 34.153484 -118.319705 139 1793ft 112kts
19-Feb-21 19:10 34.128732 -118.294229 139 1994ft 124kts
19-Feb-21 19:11 34.102080 -118.266524 138 2002ft 127kts
19-Feb-21 19:12 34.078510 -118.235224 129 2002ft 124kts
19-Feb-21 19:13 34.060691 -118.208836 128 2010ft 123kts
19-Feb-21 19:14 34.044506 -118.184781 128 2012ft 122kts
19-Feb-21 19:15 34.025612 -118.152896 123 2131ft 117kts
19-Feb-21 19:16 34.012591 -118.118022 110 2021ft 124kts
19-Feb-21 19:17 34.000993 -118.080010 109 2014ft 123kts
19-Feb-21 19:18 33.989219 -118.041145 109 2014ft 123kts
19-Feb-21 19:19 33.981027 -118.005606 98 2495ft 103kts
19-Feb-21 19:20 33.971918 -117.974366 115 3006ft 97kts
19-Feb-21 19:21 33.953605 -117.951338 142 3428ft 101kts
19-Feb-21 19:22 33.929250 -117.926570 129 3472ft 125kts
19-Feb-21 19:23 33.910091 -117.891322 121 3689ft 112kts
19-Feb-21 19:24 33.896417 -117.867992 124 4262ft 92kts
19-Feb-21 19:26 33.882677 -117.841560 129 4775ft 94kts
19-Feb-21 19:27 33.861581 -117.823416 151 5310ft 91kts
19-Feb-21 19:28 33.836250 -117.805394 151 5477ft 121kts
19-Feb-21 19:29 33.805823 -117.784254 151 5479ft 127kts
19-Feb-21 19:30 33.775003 -117.762890 151 5493ft 128kts
19-Feb-21 19:31 33.743692 -117.741188 151 5497ft 130kts
19-Feb-21 19:32 33.712180 -117.719380 151 5498ft 130kts
19-Feb-21 19:33 33.680679 -117.697663 151 5495ft 130kts
19-Feb-21 19:34 33.648007 -117.679397 171 5498ft 129kts
19-Feb-21 19:35 33.612505 -117.672831 174 5495ft 129kts
19-Feb-21 19:36 33.576775 -117.666831 174 5495ft 129kts
19-Feb-21 19:37 33.540892 -117.660799 174 5489ft 129kts
19-Feb-21 19:38 33.505063 -117.654749 174 5494ft 130kts
19-Feb-21 19:39 33.468902 -117.648659 174 5494ft 131kts
19-Feb-21 19:40 33.434304 -117.642741 174 5488ft 122kts
19-Feb-21 19:41 33.400973 -117.636927 174 5496ft 120kts
19-Feb-21 19:42 33.368669 -117.628047 139 5495ft 122kts
19-Feb-21 19:43 33.343147 -117.600815 137 5496ft 123kts
19-Feb-21 19:44 33.317854 -117.573138 137 5496ft 123kts
19-Feb-21 19:45 33.292789 -117.545725 137 5496ft 123kts
19-Feb-21 19:46 33.267500 -117.518122 137 5495ft 123kts
19-Feb-21 19:46 33.246329 -117.495034 137 5494ft 123kts
19-Feb-21 19:48 33.216710 -117.462811 137 5486ft 123kts
19-Feb-21 19:49 33.189141 -117.439565 158 5486ft 122kts
19-Feb-21 19:49 33.163722 -117.424224 151 5486ft 123kts
19-Feb-21 19:51 33.129133 -117.400208 150 5460ft 126kts
19-Feb-21 19:51 33.101820 -117.381150 150 5212ft 142kts
19-Feb-21 19:52 33.068413 -117.357914 150 4905ft 137kts
19-Feb-21 19:54 33.030229 -117.331460 150 4554ft 135kts
19-Feb-21 19:54 33.002967 -117.313058 151 4303ft 134kts
19-Feb-21 19:55 32.969944 -117.292320 153 4004ft 134kts
19-Feb-21 19:56 32.935162 -117.277221 171 3703ft 133kts
19-Feb-21 19:57 32.899078 -117.271775 174 3510ft 126kts
19-Feb-21 19:58 32.864764 -117.267124 174 3324ft 131kts
19-Feb-21 19:59 32.831605 -117.257426 133 2520ft 121kts
19-Feb-21 20:00 32.821554 -117.220852 102 1876ft 108kts
19-Feb-21 20:01 32.822471 -117.197687 72 1885ft 104kts
19-Feb-21 20:02 32.829994 -117.163861 75 1807ft 103kts
19-Feb-21 20:03 32.827011 -117.131576 110 1836ft 97kts
19-Feb-21 20:04 32.816500 -117.109281 158 1096ft 81kts
19-Feb-21 20:05 32.810407 -117.125197 296 641ft 62kts
19-Feb-21 20:06 32.816059 -117.140358 246 422ft 30kts
19-Feb-21 20:07 32.815788 -117.140952 246 421ft 0kts
19-Feb-21 20:08 32.814350 -117.141433 168 423ft 5kts

Navigation Log

Ident Type
Flight plan parsing failed, navigation log unavailable